Time;durP1;ratioP1;P1;durP2;ratioP2;P2;SDS_P1;SDS_P2;PMS_P1;PMS_P2;Temp;Humidity;BMP_temperature;BMP_pressure;BME280_temperature;BME280_humidity;BME280_pressure;Samples;Min_cycle;Max_cycle;Signal;HPM_P1;HPM_P2
2022/11/02 00:01:15;;;;;;;6.60;1.38;;;21.80;44.70;20.90;101087.00;;;;5069380;28;20028;-66
2022/11/02 00:03:41;;;;;;;5.78;1.13;;;21.80;44.80;21.00;101084.00;;;;5041087;28;20041;-66
2022/11/02 00:06:06;;;;;;;4.23;1.03;;;21.80;44.80;21.00;101077.00;;;;5070252;28;20032;-66
2022/11/02 00:08:32;;;;;;;5.57;1.10;;;21.80;44.90;21.00;101076.00;;;;5051227;28;20166;-66
2022/11/02 00:10:58;;;;;;;2.83;0.90;;;21.80;44.90;21.00;101079.00;;;;5068578;28;20036;-66
2022/11/02 00:13:24;;;;;;;2.97;1.03;;;21.80;45.00;21.00;101082.00;;;;5068229;28;20104;-66
2022/11/02 00:15:49;;;;;;;5.27;0.97;;;21.80;45.10;21.00;101081.00;;;;5070550;28;20099;-66
2022/11/02 00:18:15;;;;;;;4.47;1.07;;;21.80;45.10;21.00;101084.00;;;;5069094;28;20104;-66
2022/11/02 00:20:41;;;;;;;5.80;1.13;;;21.80;45.90;21.00;101087.00;;;;5069188;28;20128;-66
2022/11/02 00:23:09;;;;;;;2.45;1.00;;;21.80;44.90;21.00;101079.00;;;;5061955;28;20377;-66
2022/11/02 00:25:38;;;;;;;6.70;1.25;;;21.80;45.20;21.00;101078.00;;;;5069185;28;20501;-66
2022/11/02 00:28:04;;;;;;;5.05;1.10;;;21.80;45.00;21.00;101071.00;;;;5051373;28;20052;-66
2022/11/02 00:30:29;;;;;;;5.23;1.33;;;21.80;45.00;21.00;101071.00;;;;5052528;28;20032;-66
2022/11/02 00:32:55;;;;;;;5.90;1.30;;;21.80;45.00;21.00;101058.00;;;;5052893;28;20496;-66
2022/11/02 00:35:21;;;;;;;2.75;1.15;;;21.80;45.00;21.00;101061.00;;;;5069734;28;20043;-66
2022/11/02 00:37:47;;;;;;;7.17;1.20;;;21.80;44.90;21.00;101062.00;;;;5051250;28;20025;-66
2022/11/02 00:40:13;;;;;;;2.77;1.23;;;21.80;45.00;21.00;101058.00;;;;5070343;28;20119;-65
2022/11/02 00:42:39;;;;;;;4.07;0.95;;;21.80;45.00;20.90;101049.00;;;;5068297;28;20020;-66
2022/11/02 00:45:06;;;;;;;3.90;0.77;;;21.80;45.00;20.90;101056.00;;;;5070753;28;20036;-66
2022/11/02 00:47:32;;;;;;;2.47;1.00;;;21.80;44.90;20.90;101049.00;;;;5056743;28;20094;-66
2022/11/02 00:49:58;;;;;;;4.57;1.27;;;21.80;45.00;20.90;101056.00;;;;5056384;28;20028;-66
2022/11/02 00:52:23;;;;;;;3.87;1.13;;;22.00;45.00;20.90;101045.00;;;;5072352;28;20040;-66
2022/11/02 00:54:49;;;;;;;7.93;1.63;;;21.80;45.00;20.90;101043.00;;;;5074134;28;20546;-66
2022/11/02 00:57:15;;;;;;;4.00;0.90;;;21.80;45.20;20.90;101054.00;;;;5072758;28;20067;-65
2022/11/02 00:59:40;;;;;;;6.10;1.37;;;21.80;45.00;20.90;101059.00;;;;5073443;28;20446;-66
2022/11/02 01:02:06;;;;;;;4.37;0.90;;;21.80;45.00;20.90;101052.00;;;;5072089;28;20068;-66
2022/11/02 01:04:32;;;;;;;5.07;1.20;;;21.80;45.00;20.90;101061.00;;;;5074272;28;20115;-66
2022/11/02 01:06:58;;;;;;;4.17;1.40;;;21.80;45.00;20.90;101064.00;;;;5072325;28;20115;-66
2022/11/02 01:09:23;;;;;;;6.27;1.27;;;21.80;45.00;20.90;101053.00;;;;5073436;28;20115;-66
2022/11/02 01:11:50;;;;;;;7.90;1.38;;;21.80;45.00;20.90;101057.00;;;;5071657;28;20033;-66
2022/11/02 01:14:34;;;;;;;6.75;1.10;;;21.80;45.10;20.90;101051.00;;;;5073773;28;20055;-66
2022/11/02 01:16:59;;;;;;;2.95;0.98;;;21.80;45.20;20.90;101050.00;;;;5072171;28;20474;-66
2022/11/02 01:19:25;;;;;;;5.67;1.10;;;21.80;45.10;20.90;101051.00;;;;5073813;28;20035;-66
2022/11/02 01:21:51;;;;;;;4.07;1.05;;;21.70;45.20;20.90;101046.00;;;;5063571;28;20094;-66
2022/11/02 01:24:17;;;;;;;6.13;1.17;;;21.80;45.10;20.90;101046.00;;;;5073692;28;20044;-66
2022/11/02 01:26:42;;;;;;;4.03;0.83;;;21.70;45.20;20.90;101037.00;;;;5072620;28;20119;-66
2022/11/02 01:29:09;;;;;;;7.53;2.87;;;21.80;45.10;20.90;101027.00;;;;5072939;28;20517;-66
2022/11/02 01:31:35;;;;;;;2.53;0.88;;;21.80;45.20;20.90;101022.00;;;;5072288;28;20175;-66
2022/11/02 01:34:01;;;;;;;3.45;1.08;;;21.70;45.10;20.90;101015.00;;;;5054528;28;20392;-66
2022/11/02 01:36:26;;;;;;;6.67;1.10;;;21.70;45.10;20.90;101022.00;;;;5071121;28;20020;-66
2022/11/02 01:38:53;;;;;;;5.73;1.20;;;21.70;45.20;20.90;101015.00;;;;5073414;28;20103;-66
2022/11/02 01:41:19;;;;;;;3.15;0.80;;;21.70;45.10;20.90;101009.00;;;;5073380;28;20477;-66
2022/11/02 01:43:48;;;;;;;3.30;1.10;;;21.80;45.30;20.90;101026.00;;;;5071110;28;20036;-66
2022/11/02 01:46:22;;;;;;;4.88;1.27;;;21.70;45.30;20.90;101028.00;;;;5066364;28;20040;-66
2022/11/02 01:48:59;;;;;;;6.40;1.10;;;21.70;45.30;20.90;101018.00;;;;5029465;28;20032;-66
2022/11/02 01:51:29;;;;;;;2.95;0.88;;;21.70;45.10;20.90;101015.00;;;;5069352;28;20036;-66
2022/11/02 01:53:56;;;;;;;4.25;0.90;;;21.70;45.30;20.90;101017.00;;;;5053685;28;20047;-66
2022/11/02 01:56:22;;;;;;;6.53;0.98;;;21.80;45.20;20.90;101010.00;;;;5042670;28;20032;-66
2022/11/02 01:58:54;;;;;;;4.75;1.27;;;21.70;45.30;20.90;101001.00;;;;5051805;28;20039;-66
2022/11/02 02:01:20;;;;;;;5.25;1.50;;;21.70;45.20;20.80;101006.00;;;;5053534;28;20401;-66
2022/11/02 02:03:46;;;;;;;4.88;1.27;;;21.80;45.20;20.80;101007.00;;;;5055139;28;20017;-66
2022/11/02 02:06:13;;;;;;;4.85;1.15;;;21.70;45.20;20.80;101002.00;;;;5053489;28;20036;-66
2022/11/02 02:08:41;;;;;;;;;;;21.70;45.30;20.80;101001.00;;;;5075389;28;20394;-66
2022/11/02 02:11:32;;;;;;;5.90;1.35;;;21.70;45.40;20.80;101005.00;;;;5053771;28;19923;-66
2022/11/02 02:14:16;;;;;;;2.97;0.98;;;21.70;45.20;20.80;101005.00;;;;5071461;28;20040;-66
2022/11/02 02:17:35;;;;;;;4.63;1.00;;;21.70;45.20;20.80;101006.00;;;;5059302;28;20036;-65
2022/11/02 02:20:03;;;;;;;3.85;1.02;;;21.70;45.20;20.70;101001.00;;;;5061317;28;20027;-66
2022/11/02 02:22:53;;;;;;;3.58;1.10;;;21.70;45.30;20.70;101007.00;;;;5070724;28;20129;-66
2022/11/02 02:25:50;;;;;;;6.40;1.85;;;21.60;45.20;20.70;101006.00;;;;5052503;28;20036;-66
2022/11/02 02:28:31;;;;;;;3.20;0.88;;;21.70;45.30;20.70;100994.00;;;;5065529;28;20066;-66
2022/11/02 02:31:22;;;;;;;4.60;1.27;;;21.60;45.30;20.70;100996.00;;;;5052201;28;20047;-66
2022/11/02 02:34:27;;;;;;;6.55;1.25;;;21.60;45.30;20.70;100998.00;;;;5035199;28;20072;-66
2022/11/02 02:37:07;;;;;;;3.30;1.05;;;21.60;45.30;20.70;101002.00;;;;5041169;28;20037;-66
2022/11/02 02:39:47;;;;;;;5.20;0.90;;;21.60;45.40;20.70;100996.00;;;;5054024;28;20032;-66
2022/11/02 02:42:51;;;;;;;4.28;0.95;;;21.70;45.50;20.70;101003.00;;;;5054173;28;20078;-66
2022/11/02 02:45:43;;;;;;;3.40;0.73;;;21.60;45.40;20.70;101002.00;;;;5056958;28;20033;-66
2022/11/02 02:48:21;;;;;;;5.13;0.90;;;21.60;45.40;20.70;100996.00;;;;5052562;28;20028;-66
2022/11/02 02:50:53;;;;;;;5.65;1.60;;;21.60;45.50;20.70;101005.00;;;;5053203;28;20025;-66
2022/11/02 02:53:23;;;;;;;8.57;2.08;;;21.60;45.40;20.70;101003.00;;;;5036343;28;20115;-66
2022/11/02 02:55:49;;;;;;;5.40;1.63;;;21.60;45.50;20.70;101001.00;;;;5045959;28;20060;-66
2022/11/02 02:58:23;;;;;;;4.10;0.85;;;21.60;45.50;20.70;101005.00;;;;5052977;28;20059;-66
2022/11/02 03:00:49;;;;;;;3.28;0.90;;;21.60;45.50;20.70;100997.00;;;;5052976;28;20025;-66
2022/11/02 03:03:23;;;;;;;4.33;0.80;;;21.60;45.50;20.70;101009.00;;;;5052321;28;20086;-65
2022/11/02 03:06:02;;;;;;;3.50;0.93;;;21.70;45.60;20.70;101009.00;;;;5052767;28;20509;-66
2022/11/02 03:08:28;;;;;;;3.30;1.23;;;21.60;45.50;20.70;101018.00;;;;5053660;28;20024;-66
2022/11/02 03:11:14;;;;;;;4.70;0.90;;;21.60;45.40;20.70;101015.00;;;;5036872;28;20035;-66
2022/11/02 03:14:27;;;;;;;4.70;1.13;;;21.60;45.50;20.70;101007.00;;;;5050341;28;20467;-66
2022/11/02 03:17:13;;;;;;;5.90;1.17;;;21.50;45.40;20.60;101003.00;;;;5041047;28;20093;-66
2022/11/02 03:19:54;;;;;;;7.50;1.40;;;21.50;45.40;20.60;101020.00;;;;5036927;28;20539;-66
2022/11/02 03:22:44;;;;;;;4.97;1.02;;;21.50;45.30;20.60;101025.00;;;;5055462;28;20028;-66
2022/11/02 03:25:26;;;;;;;5.03;1.00;;;21.60;45.40;20.60;101022.00;;;;5054753;28;20497;-66
2022/11/02 03:28:28;;;;;;;3.45;1.00;;;21.50;45.50;20.60;101029.00;;;;5051854;28;20351;-65
2022/11/02 03:30:59;;;;;;;4.40;1.00;;;21.50;45.30;20.60;101026.00;;;;5039857;28;20029;-66
2022/11/02 03:33:34;;;;;;;4.65;1.30;;;21.50;45.90;20.60;101024.00;;;;5059900;28;20493;-66
2022/11/02 03:36:03;;;;;;;5.25;1.13;;;21.60;45.30;20.60;101034.00;;;;5038704;28;20048;-65
2022/11/02 03:38:54;;;;;;;5.80;1.02;;;21.50;45.30;20.60;101042.00;;;;5051111;28;20367;-65
2022/11/02 03:41:21;;;;;;;7.80;1.27;;;21.50;45.20;20.60;101043.00;;;;5052867;28;20386;-66
2022/11/02 03:43:47;;;;;;;;;;;21.50;45.20;20.60;101029.00;;;;5053365;28;20031;-65
2022/11/02 03:46:13;;;;;;;4.68;1.08;;;21.50;45.40;20.60;101044.00;;;;5052554;28;19928;-66
2022/11/02 03:48:42;;;;;;;3.80;1.03;;;21.60;45.10;20.60;101045.00;;;;5051755;28;20067;-66
2022/11/02 03:51:11;;;;;;;3.17;1.02;;;21.50;45.00;20.60;101040.00;;;;5054433;28;20033;-66
2022/11/02 03:54:08;;;;;;;3.45;0.90;;;21.50;44.90;20.60;101056.00;;;;5036272;28;20060;-66
2022/11/02 03:56:42;;;;;;;6.18;0.95;;;21.50;44.80;20.60;101066.00;;;;5037215;28;20031;-65
2022/11/02 03:59:08;;;;;;;5.15;1.27;;;21.50;44.80;20.50;101041.00;;;;5035854;28;20024;-65
2022/11/02 04:01:44;;;;;;;3.83;1.60;;;21.50;44.80;20.50;101055.00;;;;5051680;28;20491;-65
2022/11/02 04:04:10;;;;;;;5.13;1.17;;;21.50;44.70;20.50;101047.00;;;;5052327;28;20146;-65
2022/11/02 04:06:36;;;;;;;2.00;0.68;;;21.50;44.70;20.50;101055.00;;;;5050860;28;20072;-65
2022/11/02 04:09:02;;;;;;;3.87;0.87;;;21.50;44.70;20.50;101064.00;;;;5052795;28;20033;-65
2022/11/02 04:14:36;;;;;;;2.78;0.80;;;21.40;44.70;20.50;101056.00;;;;5034020;28;20664;-65
2022/11/02 04:19:47;;;;;;;4.25;0.88;;;21.40;44.70;20.50;101081.00;;;;5070120;28;20089;-65
2022/11/02 04:25:17;;;;;;;2.08;0.70;;;21.40;45.00;20.50;101078.00;;;;5074487;28;20031;-65
2022/11/02 04:27:44;;;;;;;2.95;0.80;;;21.30;45.00;20.50;101090.00;;;;5072949;28;20074;-65
2022/11/02 04:30:11;;;;;;;2.58;0.68;;;21.30;45.10;20.50;101087.00;;;;5056554;28;20139;-66
2022/11/02 04:35:29;;;;;;;2.67;0.68;;;21.40;45.30;20.50;101090.00;;;;5072010;28;20123;-66
2022/11/02 04:40:39;;;;;;;5.20;0.93;;;21.40;45.30;20.60;101084.00;;;;5080594;28;20098;-65
2022/11/02 04:43:05;;;;;;;6.55;1.40;;;21.40;45.30;20.60;101090.00;;;;5072550;28;20017;-66
2022/11/02 04:45:31;;;;;;;5.43;1.00;;;21.40;45.30;20.60;101077.00;;;;5072862;28;20029;-66
2022/11/02 04:48:04;;;;;;;4.20;1.30;;;21.40;45.30;20.60;101083.00;;;;5073634;28;20539;-65
2022/11/02 04:50:30;;;;;;;6.28;1.15;;;21.40;45.30;20.60;101090.00;;;;5074295;28;20665;-66
2022/11/02 04:53:00;;;;;;;3.37;0.93;;;21.40;45.30;20.60;101072.00;;;;5054890;28;20025;-66
2022/11/02 04:55:26;;;;;;;6.38;0.90;;;21.40;45.30;20.60;101082.00;;;;5073670;28;20167;-66
2022/11/02 04:57:52;;;;;;;4.28;1.23;;;21.30;45.20;20.50;101077.00;;;;5055207;28;20036;-66
2022/11/02 05:00:18;;;;;;;2.43;0.80;;;21.40;45.30;20.50;101071.00;;;;5072884;28;20420;-66
2022/11/02 05:02:48;;;;;;;3.80;0.70;;;21.40;45.30;20.50;101078.00;;;;5055152;28;20047;-66
2022/11/02 05:05:15;;;;;;;3.72;1.00;;;21.40;45.20;20.50;101085.00;;;;5051229;28;20517;-66
2022/11/02 05:07:41;;;;;;;;;;;21.40;45.20;20.50;101080.00;;;;5057197;28;20082;-66
2022/11/02 05:10:07;;;;;;;3.53;1.00;;;21.40;45.30;20.50;101080.00;;;;5055947;28;19912;-66
2022/11/02 05:12:33;;;;;;;5.93;1.10;;;21.40;45.10;20.50;101085.00;;;;5067877;28;20472;-66
2022/11/02 05:14:58;;;;;;;3.72;0.90;;;21.40;45.10;20.50;101094.00;;;;5055871;28;20109;-66
2022/11/02 05:17:24;;;;;;;4.27;1.00;;;21.40;45.10;20.50;101106.00;;;;5071377;28;20035;-66
2022/11/02 05:19:50;;;;;;;6.87;1.30;;;21.50;45.30;20.50;101104.00;;;;5073474;28;20104;-66
2022/11/02 05:22:16;;;;;;;6.50;1.03;;;21.40;45.30;20.50;101099.00;;;;5072011;28;20358;-66
2022/11/02 05:24:41;;;;;;;3.83;1.10;;;21.40;45.20;20.50;101107.00;;;;5073396;28;20067;-66
2022/11/02 05:27:09;;;;;;;2.80;0.80;;;21.40;45.20;20.50;101126.00;;;;5072103;28;20127;-65
2022/11/02 05:29:35;;;;;;;4.70;1.00;;;21.50;45.30;20.50;101115.00;;;;5073135;28;20111;-66
2022/11/02 05:32:00;;;;;;;4.05;1.30;;;21.40;45.90;20.50;101116.00;;;;5070744;28;20162;-66
2022/11/02 05:34:26;;;;;;;6.07;1.30;;;21.40;45.20;20.50;101108.00;;;;5082391;28;20036;-66
2022/11/02 05:36:52;;;;;;;3.33;1.00;;;21.50;45.20;20.50;101113.00;;;;5071021;28;20052;-66
2022/11/02 05:39:18;;;;;;;4.80;1.10;;;21.40;45.20;20.50;101118.00;;;;5055787;28;20158;-66
2022/11/02 05:41:44;;;;;;;6.03;1.15;;;21.40;45.20;20.50;101124.00;;;;5072025;28;21834;-66
2022/11/02 05:44:10;;;;;;;7.43;1.27;;;21.40;45.10;20.50;101126.00;;;;5072301;28;20055;-66
2022/11/02 05:46:36;;;;;;;5.50;1.07;;;21.40;45.20;20.50;101142.00;;;;5071357;28;20101;-66
2022/11/02 05:49:02;;;;;;;5.17;1.10;;;21.40;45.10;20.50;101138.00;;;;5073141;28;20255;-66
2022/11/02 05:51:27;;;;;;;8.07;1.57;;;21.40;45.10;20.50;101138.00;;;;5071999;28;20123;-65
2022/11/02 05:53:53;;;;;;;4.80;0.90;;;21.30;45.00;20.50;101143.00;;;;5073043;28;20075;-66
2022/11/02 05:56:19;;;;;;;6.47;1.20;;;21.40;45.10;20.50;101149.00;;;;5072210;28;20496;-65
2022/11/02 05:58:44;;;;;;;3.57;1.33;;;21.40;45.80;20.50;101159.00;;;;5071640;28;20531;-65
2022/11/02 06:01:10;;;;;;;3.20;0.87;;;21.30;45.70;20.50;101154.00;;;;5052451;28;20075;-65
2022/11/02 06:03:36;;;;;;;3.23;0.70;;;21.40;45.00;20.50;101157.00;;;;5078795;28;20060;-65
2022/11/02 06:06:05;;;;;;;3.93;1.13;;;21.40;45.10;20.40;101159.00;;;;5055013;28;20458;-66
2022/11/02 06:08:34;;;;;;;4.35;1.02;;;21.30;45.10;20.40;101151.00;;;;5052713;28;20044;-65
2022/11/02 06:11:07;;;;;;;2.65;1.10;;;21.40;45.00;20.40;101158.00;;;;5053163;28;20283;-65
2022/11/02 06:13:33;;;;;;;5.40;1.52;;;21.30;45.00;20.40;101158.00;;;;5054289;28;20363;-66
2022/11/02 06:16:03;;;;;;;6.13;1.27;;;21.30;44.90;20.40;101157.00;;;;5061157;28;20132;-65
2022/11/02 06:18:30;;;;;;;7.20;1.25;;;21.30;45.00;20.40;101163.00;;;;5071890;28;20028;-65
2022/11/02 06:20:57;;;;;;;3.67;1.00;;;21.30;45.00;20.40;101148.00;;;;5054550;28;20044;-65
2022/11/02 06:23:24;;;;;;;5.30;1.33;;;21.30;44.80;20.40;101163.00;;;;5071096;28;20489;-65
2022/11/02 06:25:52;;;;;;;;;;;21.30;45.00;20.40;101158.00;;;;5071518;28;20020;-65
2022/11/02 06:28:19;;;;;;;4.40;0.98;;;21.30;45.10;20.40;101163.00;;;;5071271;28;20011;-65
2022/11/02 06:30:44;;;;;;;4.90;1.38;;;21.20;44.80;20.40;101167.00;;;;5053594;28;20043;-65
2022/11/02 06:33:10;;;;;;;6.03;1.77;;;21.30;44.80;20.40;101172.00;;;;5069466;28;20032;-66
2022/11/02 06:35:36;;;;;;;3.83;1.13;;;21.30;44.80;20.40;101173.00;;;;5069124;28;20493;-66
2022/11/02 06:38:02;;;;;;;4.93;1.13;;;21.30;44.90;20.40;101173.00;;;;5069057;28;20120;-65
2022/11/02 06:40:28;;;;;;;6.83;1.40;;;21.20;44.90;20.40;101185.00;;;;5069616;28;20055;-65
2022/11/02 06:42:57;;;;;;;4.32;1.00;;;21.30;44.90;20.40;101189.00;;;;5051116;28;20024;-66
2022/11/02 06:45:23;;;;;;;4.78;1.15;;;21.20;44.80;20.40;101191.00;;;;5066463;28;20072;-65
2022/11/02 06:47:49;;;;;;;3.58;1.05;;;21.20;44.70;20.40;101200.00;;;;5050274;28;20025;-66
2022/11/02 06:50:15;;;;;;;5.17;1.73;;;21.20;44.90;20.40;101202.00;;;;5053112;28;20036;-65
2022/11/02 06:52:45;;;;;;;2.40;0.93;;;21.30;44.90;20.40;101201.00;;;;5066139;28;20033;-65
2022/11/02 06:55:11;;;;;;;5.07;1.35;;;21.20;44.70;20.40;101211.00;;;;5051095;28;20493;-66
2022/11/02 06:57:37;;;;;;;6.68;1.20;;;21.20;44.80;20.40;101207.00;;;;5049972;28;20542;-65
2022/11/02 07:00:11;;;;;;;5.53;1.38;;;21.30;44.80;20.30;101220.00;;;;5071342;28;20029;-65
2022/11/02 07:02:39;;;;;;;5.85;1.20;;;21.30;44.70;20.40;101215.00;;;;5069535;28;20032;-66
2022/11/02 07:05:05;;;;;;;3.17;0.95;;;21.20;44.70;20.30;101216.00;;;;5054002;28;20024;-66
2022/11/02 07:07:31;;;;;;;2.58;0.93;;;21.20;44.80;20.30;101231.00;;;;5052239;28;20025;-65
2022/11/02 07:09:57;;;;;;;5.50;1.23;;;21.20;44.80;20.40;101227.00;;;;5048990;28;20109;-65
2022/11/02 07:12:23;;;;;;;6.25;1.38;;;21.20;44.80;20.40;101238.00;;;;5050895;28;20068;-65
2022/11/02 07:14:49;;;;;;;4.23;1.83;;;21.20;44.70;20.30;101244.00;;;;5069147;28;20031;-65
2022/11/02 07:17:15;;;;;;;4.60;1.27;;;21.20;44.70;20.30;101240.00;;;;5069921;28;20488;-65
2022/11/02 07:19:40;;;;;;;6.37;1.30;;;21.20;44.70;20.30;101246.00;;;;5070685;28;20063;-65
2022/11/02 07:22:06;;;;;;;4.00;1.20;;;21.20;44.70;20.30;101257.00;;;;5057300;28;20167;-65
2022/11/02 07:24:32;;;;;;;6.27;1.50;;;21.20;44.60;20.30;101259.00;;;;5072141;28;20032;-66
2022/11/02 07:26:57;;;;;;;7.30;1.40;;;21.20;44.70;20.30;101264.00;;;;5062473;28;20071;-65
2022/11/02 07:29:23;;;;;;;3.67;1.00;;;21.20;44.60;20.30;101274.00;;;;5061420;28;20109;-65
2022/11/02 07:31:49;;;;;;;4.50;1.07;;;21.20;44.60;20.30;101271.00;;;;5068197;28;20131;-65
2022/11/02 07:34:15;;;;;;;5.27;1.10;;;21.10;44.70;20.30;101275.00;;;;5069260;28;20127;-65
2022/11/02 07:36:41;;;;;;;5.35;1.10;;;21.10;44.60;20.30;101284.00;;;;5049009;28;20082;-65
2022/11/02 07:39:06;;;;;;;7.37;1.40;;;21.20;44.60;20.30;101290.00;;;;5066886;28;20036;-65
2022/11/02 07:41:33;;;;;;;5.33;1.33;;;21.10;44.60;20.30;101283.00;;;;5065407;28;20028;-65
2022/11/02 07:43:59;;;;;;;6.25;1.20;;;21.10;44.50;20.30;101293.00;;;;5052827;28;20434;-65
2022/11/02 07:46:25;;;;;;;3.87;1.13;;;21.10;44.70;20.30;101301.00;;;;5049112;28;20115;-65
2022/11/02 07:48:53;;;;;;;5.30;1.20;;;21.20;44.70;20.30;101306.00;;;;5069964;28;20050;-65
2022/11/02 07:51:19;;;;;;;4.85;1.20;;;21.10;44.60;20.20;101306.00;;;;5067222;28;20028;-66
2022/11/02 07:53:45;;;;;;;7.40;1.13;;;21.10;44.70;20.30;101312.00;;;;5052720;28;20037;-65
2022/11/02 07:56:11;;;;;;;6.70;1.43;;;21.10;44.70;20.30;101324.00;;;;5069015;28;20060;-66
2022/11/02 07:58:37;;;;;;;6.60;1.20;;;21.10;44.70;20.30;101332.00;;;;5063050;28;20424;-65
2022/11/02 08:01:02;;;;;;;5.60;1.37;;;21.10;44.70;20.30;101342.00;;;;5067517;28;20074;-65
2022/11/02 08:03:28;;;;;;;3.33;0.73;;;21.10;44.70;20.20;101328.00;;;;5062859;28;20123;-65
2022/11/02 08:05:54;;;;;;;3.60;1.20;;;21.10;44.70;20.20;101340.00;;;;5064488;28;20044;-65
2022/11/02 08:08:21;;;;;;;3.43;1.27;;;21.10;44.80;20.20;101339.00;;;;5049417;28;20535;-65
2022/11/02 08:10:49;;;;;;;3.85;0.95;;;21.10;44.60;20.20;101351.00;;;;5050241;28;20043;-65
2022/11/02 08:13:20;;;;;;;6.53;1.15;;;21.10;44.60;20.20;101361.00;;;;5046815;28;20482;-65
2022/11/02 08:15:50;;;;;;;5.75;1.25;;;21.10;44.60;20.20;101370.00;;;;5068474;28;20566;-66
2022/11/02 08:18:21;;;;;;;3.78;1.00;;;21.10;44.60;20.20;101358.00;;;;5051558;28;20032;-66
2022/11/02 08:20:47;;;;;;;4.88;1.10;;;21.10;44.70;20.20;101364.00;;;;5052529;28;20063;-65
2022/11/02 08:23:16;;;;;;;4.00;0.97;;;21.10;44.70;20.20;101366.00;;;;5068201;28;20402;-65
2022/11/02 08:25:44;;;;;;;4.53;0.93;;;21.10;44.70;20.20;101365.00;;;;5066850;28;20028;-65
2022/11/02 08:28:15;;;;;;;4.75;1.17;;;21.10;44.70;20.20;101363.00;;;;5070895;28;20420;-65
2022/11/02 08:30:41;;;;;;;8.52;1.33;;;21.10;44.70;20.20;101379.00;;;;5069346;28;20454;-65
2022/11/02 08:33:12;;;;;;;2.87;0.97;;;21.00;44.60;20.20;101380.00;;;;5049110;28;20039;-65
2022/11/02 08:35:38;;;;;;;5.30;0.93;;;21.00;44.50;20.20;101381.00;;;;5055161;28;20154;-65
2022/11/02 08:38:04;;;;;;;5.65;1.30;;;21.10;44.60;20.20;101382.00;;;;5063923;28;20028;-66
2022/11/02 08:40:30;;;;;;;2.83;0.80;;;21.10;44.60;20.20;101383.00;;;;5067304;28;20086;-65
2022/11/02 08:43:04;;;;;;;4.20;0.87;;;21.10;44.60;20.20;101393.00;;;;5047796;28;20029;-65
2022/11/02 08:45:30;;;;;;;5.55;1.05;;;21.10;44.60;20.20;101403.00;;;;5045771;28;20025;-65
2022/11/02 08:47:56;;;;;;;4.20;0.93;;;21.10;44.50;20.20;101407.00;;;;5049472;28;20040;-66
2022/11/02 08:50:22;;;;;;;3.90;1.00;;;21.10;44.50;20.20;101406.00;;;;5064345;28;20066;-65
2022/11/02 08:52:48;;;;;;;4.47;0.98;;;21.10;44.50;20.20;101404.00;;;;5068940;28;20521;-65
2022/11/02 08:55:14;;;;;;;3.93;0.77;;;21.10;44.50;20.20;101408.00;;;;5067936;28;20199;-65
2022/11/02 08:57:50;;;;;;;4.23;0.90;;;21.00;44.40;20.10;101428.00;;;;5061283;28;20056;-65
2022/11/02 09:00:17;;;;;;;6.35;1.15;;;21.00;44.40;20.10;101426.00;;;;5045292;28;20021;-65
2022/11/02 09:02:43;;;;;;;3.58;0.95;;;21.00;44.30;20.10;101433.00;;;;5073938;28;20060;-65
2022/11/02 09:05:09;;;;;;;3.90;0.90;;;21.00;44.30;20.10;101407.00;;;;5067726;28;20024;-65
2022/11/02 09:07:35;;;;;;;3.40;0.82;;;21.10;44.40;20.10;101424.00;;;;5052062;28;20443;-65
2022/11/02 09:10:01;;;;;;;4.25;0.95;;;21.00;44.60;20.10;101426.00;;;;5073655;28;20366;-65
2022/11/02 09:12:27;;;;;;;2.83;0.93;;;21.00;44.60;20.10;101430.00;;;;5072060;28;20036;-65
2022/11/02 09:14:53;;;;;;;5.20;0.90;;;21.10;44.60;20.10;101444.00;;;;5073722;28;20488;-65
2022/11/02 09:17:18;;;;;;;5.40;1.30;;;21.00;45.10;20.10;101440.00;;;;5072239;28;20458;-65
2022/11/02 09:19:44;;;;;;;3.10;0.97;;;21.00;44.30;20.10;101439.00;;;;5055969;28;20618;-65
2022/11/02 09:22:10;;;;;;;6.63;1.00;;;21.00;44.40;20.10;101441.00;;;;5071753;28;20130;-66
2022/11/02 09:24:36;;;;;;;6.07;1.27;;;21.00;44.30;20.10;101441.00;;;;5073640;28;20116;-65
2022/11/02 09:27:01;;;;;;;3.70;0.80;;;21.00;44.30;20.10;101450.00;;;;5071813;28;20060;-65
2022/11/02 09:29:27;;;;;;;3.63;0.90;;;21.00;44.30;20.10;101452.00;;;;5073284;28;20116;-65
2022/11/02 09:31:53;;;;;;;4.33;1.00;;;21.00;44.30;20.10;101456.00;;;;5071568;28;20114;-65
2022/11/02 09:34:19;;;;;;;4.73;0.83;;;21.00;44.30;20.10;101468.00;;;;5073361;28;20158;-65
2022/11/02 09:36:44;;;;;;;5.53;0.90;;;21.00;44.20;20.10;101473.00;;;;5071518;28;20067;-65
2022/11/02 09:39:10;;;;;;;3.57;1.10;;;21.00;44.30;20.10;101474.00;;;;5081671;28;20116;-65
2022/11/02 09:41:45;;;;;;;3.43;0.90;;;21.00;44.30;20.10;101477.00;;;;5071944;28;20111;-65
2022/11/02 09:44:26;;;;;;;4.53;1.02;;;21.00;45.00;20.10;101474.00;;;;5035298;28;20024;-65
2022/11/02 09:46:52;;;;;;;7.38;1.52;;;21.00;44.10;20.10;101479.00;;;;5053826;28;20028;-66
2022/11/02 09:49:24;;;;;;;5.43;0.90;;;21.00;44.10;20.10;101481.00;;;;5064444;28;20024;-65
2022/11/02 09:51:57;;;;;;;4.53;1.55;;;21.00;44.30;20.10;101489.00;;;;5043846;28;20031;-66
2022/11/02 09:54:35;;;;;;;4.28;1.08;;;21.00;44.10;20.10;101493.00;;;;5070705;28;20032;-66
2022/11/02 09:57:25;;;;;;;7.55;0.93;;;21.00;44.20;20.10;101501.00;;;;5046752;28;20024;-65
2022/11/02 09:59:51;;;;;;;7.43;1.25;;;21.00;44.00;20.10;101492.00;;;;5059661;28;20013;-66
2022/11/02 10:02:54;;;;;;;4.30;0.80;;;21.00;44.00;20.00;101494.00;;;;5053802;28;20381;-65
2022/11/02 10:05:42;;;;;;;4.95;1.20;;;21.00;43.90;20.00;101495.00;;;;5053329;28;20100;-66
2022/11/02 10:09:01;;;;;;;5.47;0.90;;;21.00;43.90;20.00;101516.00;;;;5051416;28;20394;-66
2022/11/02 10:12:02;;;;;;;3.83;0.90;;;21.00;43.90;20.00;101515.00;;;;5042966;28;20044;-65
2022/11/02 10:14:35;;;;;;;4.43;1.27;;;21.00;43.90;20.00;101520.00;;;;5032562;28;20062;-65
2022/11/02 10:17:13;;;;;;;4.50;1.08;;;20.90;43.80;20.00;101524.00;;;;5060091;28;20017;-65
2022/11/02 10:19:40;;;;;;;4.32;0.70;;;21.00;43.80;20.00;101519.00;;;;5063157;28;20375;-66
2022/11/02 10:22:10;;;;;;;5.15;0.88;;;21.00;43.90;20.00;101523.00;;;;5052870;28;20039;-66
2022/11/02 10:24:44;;;;;;;3.03;0.80;;;20.90;43.80;20.10;101539.00;;;;5047570;28;20497;-65
2022/11/02 10:27:29;;;;;;;5.10;0.77;;;20.90;43.90;20.00;101536.00;;;;5052015;28;20031;-65
2022/11/02 10:30:06;;;;;;;5.05;0.68;;;20.90;43.90;20.10;101531.00;;;;5056535;28;20016;-65
2022/11/02 10:32:34;;;;;;;3.03;0.73;;;20.90;43.80;20.10;101526.00;;;;5051175;28;20413;-66
2022/11/02 10:35:02;;;;;;;4.55;0.73;;;21.00;43.90;20.10;101535.00;;;;5065402;28;20482;-65
2022/11/02 10:37:49;;;;;;;2.97;0.90;;;21.00;43.80;20.10;101535.00;;;;5049830;28;20467;-65
2022/11/02 10:40:57;;;;;;;2.83;0.80;;;21.00;43.80;20.10;101554.00;;;;5071246;28;20043;-66
2022/11/02 10:43:54;;;;;;;5.57;1.10;;;21.00;43.70;20.00;101550.00;;;;5067649;28;20043;-66
2022/11/02 10:46:59;;;;;;;3.95;0.98;;;21.00;43.70;20.00;101559.00;;;;5052188;28;20036;-66
2022/11/02 10:50:00;;;;;;;3.05;0.70;;;21.00;43.80;20.00;101554.00;;;;5057182;28;20095;-65
2022/11/02 10:52:29;;;;;;;6.53;1.08;;;21.00;43.70;20.00;101562.00;;;;5049756;28;20120;-66
2022/11/02 10:54:55;;;;;;;3.25;1.13;;;21.00;43.70;20.00;101557.00;;;;5059108;28;20116;-66
2022/11/02 10:57:22;;;;;;;4.27;0.80;;;21.00;43.70;20.00;101571.00;;;;5067279;28;20024;-66
2022/11/02 11:00:22;;;;;;;3.65;0.77;;;21.00;43.60;20.00;101577.00;;;;5031315;28;20037;-66
2022/11/02 11:03:14;;;;;;;5.15;1.10;;;20.90;43.60;20.00;101585.00;;;;5069456;28;20041;-65
2022/11/02 11:05:49;;;;;;;5.20;1.25;;;21.00;43.40;20.00;101579.00;;;;5047418;28;20203;-66
2022/11/02 11:08:37;;;;;;;4.82;1.08;;;21.00;43.30;20.00;101574.00;;;;5068674;28;20032;-65
2022/11/02 11:11:21;;;;;;;5.40;1.30;;;20.90;43.30;20.00;101572.00;;;;5045216;28;20429;-65
2022/11/02 11:13:56;;;;;;;5.70;1.23;;;21.00;43.40;20.00;101582.00;;;;5034502;28;20564;-66
2022/11/02 11:16:36;;;;;;;6.32;0.88;;;20.90;43.40;20.00;101587.00;;;;5046489;28;20036;-65
2022/11/02 11:19:03;;;;;;;2.90;0.70;;;20.90;43.60;20.00;101590.00;;;;5038970;28;20082;-66